Time;durP1;ratioP1;P1;durP2;ratioP2;P2;SDS_P1;SDS_P2;PMS_P1;PMS_P2;Temp;Humidity;BMP_temperature;BMP_pressure;BME280_temperature;BME280_humidity;BME280_pressure;Samples;Min_cycle;Max_cycle;Signal;HPM_P1;HPM_P2
2023/01/13 00:01:16;;;;;;;;;;;;;;;-10.70;35.93;99092.69;6296215;28;19975;-67
2023/01/13 00:04:21;;;;;;;;;;;;;;;-10.56;35.31;99109.56;6296321;28;19924;-67
2023/01/13 00:07:25;;;;;;;;;;;;;;;-10.62;35.37;99081.25;6296263;28;19955;-67
2023/01/13 00:10:31;;;;;;;;;;;;;;;-10.60;35.67;99094.06;6296217;28;20010;-67
2023/01/13 00:13:37;;;;;;;;;;;;;;;-10.60;36.17;99089.84;6296032;28;19962;-67
2023/01/13 00:16:38;;;;;;;;;;;;;;;-10.94;36.46;99082.94;6294944;28;20018;-68
2023/01/13 00:19:41;;;;;;;;;;;;;;;-10.64;36.16;99078.66;6295817;28;20409;-67
2023/01/13 00:22:44;;;;;;;;;;;;;;;-10.83;36.68;99090.28;6295966;28;19925;-68
2023/01/13 00:25:48;;;;;;;;;;;;;;;-10.85;36.58;99078.34;6278425;28;20354;-67
2023/01/13 00:28:49;;;;;;;;;;;;;;;-10.80;36.63;99070.09;6294986;28;19925;-67
2023/01/13 00:31:50;;;;;;;;;;;;;;;-10.70;36.31;99072.34;6295021;28;19964;-68
2023/01/13 00:34:51;;;;;;;;;;;;;;;-10.70;36.50;99054.53;6294943;28;19932;-67
2023/01/13 00:37:57;;;;;;;;;;;;;;;-10.35;35.68;99045.34;6295994;28;19924;-67
2023/01/13 00:41:05;;;;;;;;;;;;;;;-10.56;35.97;99033.25;6295340;28;19972;-67
2023/01/13 00:44:06;;;;;;;;;;;;;;;-10.51;35.76;99038.56;6277524;28;19925;-67
2023/01/13 00:47:12;;;;;;;;;;;;;;;-10.65;36.56;99045.47;6295806;28;19924;-67
2023/01/13 00:50:18;;;;;;;;;;;;;;;-10.75;36.69;99041.59;6296443;28;19974;-67
2023/01/13 00:53:19;;;;;;;;;;;;;;;-10.67;36.17;99047.06;6282628;28;20378;-67
2023/01/13 00:56:21;;;;;;;;;;;;;;;-10.57;36.06;99038.25;6299639;28;19928;-67
2023/01/13 00:59:28;;;;;;;;;;;;;;;-10.66;35.66;99028.47;6298634;28;20022;-67
2023/01/13 01:02:34;;;;;;;;;;;;;;;-10.59;36.30;99058.53;6300294;28;19975;-67
2023/01/13 01:05:39;;;;;;;;;;;;;;;-10.67;36.04;99055.59;6282861;28;20054;-67
2023/01/13 01:08:40;;;;;;;;;;;;;;;-10.71;36.38;99060.41;6299417;28;19968;-67
2023/01/13 01:11:41;;;;;;;;;;;;;;;-10.55;35.82;99068.09;6299452;28;19924;-67
2023/01/13 01:14:45;;;;;;;;;;;;;;;-10.49;36.06;99063.31;6300065;28;19925;-67
2023/01/13 01:17:49;;;;;;;;;;;;;;;-10.38;35.98;99071.50;6300141;28;19924;-67
2023/01/13 01:20:49;;;;;;;;;;;;;;;-10.41;35.80;99062.06;6298927;28;19947;-68
2023/01/13 01:23:50;;;;;;;;;;;;;;;-10.43;36.37;99053.44;6299472;28;20027;-68
2023/01/13 01:26:54;;;;;;;;;;;;;;;-10.28;36.79;99062.69;6298907;28;20318;-67
2023/01/13 01:29:55;;;;;;;;;;;;;;;-10.30;37.18;99059.16;6299074;28;20315;-67
2023/01/13 01:32:58;;;;;;;;;;;;;;;-10.44;37.91;99061.91;6298604;28;19931;-67
2023/01/13 01:36:02;;;;;;;;;;;;;;;-10.32;37.37;99048.06;6298744;28;19931;-67
2023/01/13 01:39:08;;;;;;;;;;;;;;;-10.10;35.13;99058.53;6299721;28;19920;-68
2023/01/13 01:45:38;;;;;;;;;;;;;;;-9.97;35.00;99054.91;6298706;28;19927;-67
2023/01/13 01:48:41;;;;;;;;;;;;;;;-10.25;35.70;99067.91;6298723;28;19924;-68
2023/01/13 01:51:48;;;;;;;;;;;;;;;-10.18;35.83;99055.56;6299344;28;19960;-67
2023/01/13 01:54:53;;;;;;;;;;;;;;;-10.29;35.68;99081.31;6297734;28;20416;-68
2023/01/13 01:58:01;;;;;;;;;;;;;;;-10.20;34.84;99036.78;6298065;28;20011;-67
2023/01/13 02:01:07;;;;;;;;;;;;;;;-10.21;34.92;99062.19;6298100;28;20031;-68
2023/01/13 02:04:18;;;;;;;;;;;;;;;-10.20;35.19;99061.38;6296923;28;19947;-68
2023/01/13 02:07:24;;;;;;;;;;;;;;;-10.03;35.00;99041.88;6298832;28;19924;-68
2023/01/13 02:10:28;;;;;;;;;;;;;;;-10.15;34.80;99024.31;6298015;28;19924;-68
2023/01/13 02:13:32;;;;;;;;;;;;;;;-10.20;34.92;99041.00;6297633;28;19924;-67
2023/01/13 02:16:38;;;;;;;;;;;;;;;-10.13;34.85;99037.09;6298554;28;19924;-67
2023/01/13 02:20:05;;;;;;;;;;;;;;;-10.12;34.91;99044.81;6296929;28;19931;-68
2023/01/13 02:26:42;;;;;;;;;;;;;;;-10.09;34.77;99019.53;6297990;28;19931;-67
2023/01/13 02:33:24;;;;;;;;;;;;;;;-10.28;34.90;99021.94;6297346;28;20422;-68
2023/01/13 02:36:34;;;;;;;;;;;;;;;-10.24;35.04;99001.81;6296893;28;19924;-69
2023/01/13 02:39:43;;;;;;;;;;;;;;;-10.22;34.91;99014.59;6296301;28;19931;-69
2023/01/13 02:46:40;;;;;;;;;;;;;;;-10.21;34.68;99013.81;6297249;28;19931;-67
2023/01/13 02:49:49;;;;;;;;;;;;;;;-10.15;34.65;98998.84;6297685;28;19936;-67
2023/01/13 02:52:59;;;;;;;;;;;;;;;-10.24;35.42;99008.56;6295973;28;19931;-67
2023/01/13 02:56:03;;;;;;;;;;;;;;;-10.25;36.00;99009.34;6296669;28;20034;-68
2023/01/13 02:59:08;;;;;;;;;;;;;;;-10.19;36.25;99019.84;6296603;28;19968;-67
2023/01/13 03:02:12;;;;;;;;;;;;;;;-10.28;36.57;99006.69;6297118;28;19939;-68
2023/01/13 03:05:14;;;;;;;;;;;;;;;-10.38;36.85;99014.66;6296017;28;20294;-67
2023/01/13 03:08:20;;;;;;;;;;;;;;;-10.45;36.25;99014.31;6296188;28;19924;-67
2023/01/13 03:11:30;;;;;;;;;;;;;;;-10.69;36.65;99013.06;6297059;28;20386;-68
2023/01/13 03:14:38;;;;;;;;;;;;;;;-10.60;36.39;99018.63;6295041;28;19924;-68
2023/01/13 03:18:06;;;;;;;;;;;;;;;-10.46;35.47;99032.94;6296596;28;20004;-67
2023/01/13 03:21:09;;;;;;;;;;;;;;;-10.13;34.22;99043.09;6260584;28;20341;-68
2023/01/13 03:28:12;;;;;;;;;;;;;;;-10.07;34.54;99043.41;6296254;28;19928;-68
2023/01/13 03:31:16;;;;;;;;;;;;;;;-9.96;33.60;99014.25;6296002;28;19934;-67
2023/01/13 03:34:20;;;;;;;;;;;;;;;-10.01;34.19;99013.16;6295463;28;19928;-68
2023/01/13 03:37:25;;;;;;;;;;;;;;;-10.24;34.38;99019.63;6295306;28;20417;-68
2023/01/13 03:40:32;;;;;;;;;;;;;;;-10.10;34.44;99017.78;6295246;28;19925;-68
2023/01/13 03:47:17;;;;;;;;;;;;;;;-9.90;34.01;99020.47;6278119;28;20019;-67
2023/01/13 03:50:25;;;;;;;;;;;;;;;-9.95;34.64;99018.53;6296269;28;20405;-67
2023/01/13 03:53:31;;;;;;;;;;;;;;;-9.89;34.76;99033.25;6296369;28;19924;-67
2023/01/13 03:56:35;;;;;;;;;;;;;;;-9.96;35.42;99042.28;6295483;28;20384;-67
2023/01/13 03:59:42;;;;;;;;;;;;;;;-10.10;35.88;99053.44;6295617;28;19931;-67
2023/01/13 04:02:53;;;;;;;;;;;;;;;-10.26;36.69;99066.16;6295425;28;19924;-68
2023/01/13 04:05:58;;;;;;;;;;;;;;;-10.31;37.15;99062.53;6294933;28;19924;-67
2023/01/13 04:09:20;;;;;;;;;;;;;;;-10.31;37.76;99075.25;6296291;28;19924;-68
2023/01/13 04:15:48;;;;;;;;;;;;;;;-10.37;37.76;99085.13;6295248;28;19931;-68
2023/01/13 04:18:53;;;;;;;;;;;;;;;-10.29;37.45;99091.47;6295792;28;20406;-68
2023/01/13 04:21:58;;;;;;;;;;;;;;;-10.21;37.19;99097.81;6296065;28;19928;-67
2023/01/13 04:24:59;;;;;;;;;;;;;;;-10.33;37.19;99094.66;6294677;28;20019;-67
2023/01/13 04:28:01;;;;;;;;;;;;;;;-10.39;37.10;99095.19;6295975;28;20055;-68
2023/01/13 04:31:06;;;;;;;;;;;;;;;-10.29;36.13;99076.22;6295927;28;19928;-67
2023/01/13 04:34:09;;;;;;;;;;;;;;;-10.35;35.99;99081.00;6294825;28;19931;-68
2023/01/13 04:37:10;;;;;;;;;;;;;;;-10.22;36.24;99083.31;6294866;28;19924;-68
2023/01/13 04:40:11;;;;;;;;;;;;;;;-10.24;36.59;99062.03;6277166;28;19924;-68
2023/01/13 04:43:16;;;;;;;;;;;;;;;-10.14;36.35;99061.69;6295872;28;19924;-67
2023/01/13 04:46:19;;;;;;;;;;;;;;;-10.21;36.44;99064.72;6295762;28;19924;-67
2023/01/13 04:49:20;;;;;;;;;;;;;;;-10.15;36.05;99059.94;6295018;28;19924;-68
2023/01/13 04:52:23;;;;;;;;;;;;;;;-10.17;35.76;99071.72;6295553;28;20416;-68
2023/01/13 04:55:24;;;;;;;;;;;;;;;-10.22;35.21;99083.31;6294468;28;19932;-68
2023/01/13 04:58:28;;;;;;;;;;;;;;;-10.28;35.63;99090.69;6294969;28;19925;-69
2023/01/13 05:01:35;;;;;;;;;;;;;;;-10.31;35.83;99073.56;6295420;28;20467;-67
2023/01/13 05:04:38;;;;;;;;;;;;;;;-10.35;35.89;99101.34;6294515;28;19925;-69
2023/01/13 05:07:39;;;;;;;;;;;;;;;-10.31;35.11;99093.06;6294449;28;20421;-68
2023/01/13 05:10:42;;;;;;;;;;;;;;;-10.26;34.60;99086.53;6295300;28;19970;-68
2023/01/13 05:17:08;;;;;;;;;;;;;;;-10.08;33.37;99068.75;6294716;28;20065;-67
2023/01/13 05:20:11;;;;;;;;;;;;;;;-10.05;33.81;99079.97;6277296;28;20313;-68
2023/01/13 05:26:36;;;;;;;;;;;;;;;-9.96;34.01;99092.34;6294604;28;19978;-67
2023/01/13 05:29:40;;;;;;;;;;;;;;;-9.86;33.77;99088.56;6294172;28;19925;-67
2023/01/13 05:32:41;;;;;;;;;;;;;;;-9.55;32.82;99094.41;6294234;28;19990;-67
2023/01/13 05:35:43;;;;;;;;;;;;;;;-9.37;31.90;99070.63;6294162;28;19924;-68
2023/01/13 05:38:47;;;;;;;;;;;;;;;-9.18;31.66;99057.94;6298913;28;20394;-68
2023/01/13 05:45:07;;;;;;;;;;;;;;;-8.70;30.65;99045.75;6298878;28;19939;-68
2023/01/13 05:48:10;;;;;;;;;;;;;;;-8.47;30.30;99051.88;6299102;28;19924;-69
2023/01/13 05:51:12;;;;;;;;;;;;;;;-8.18;29.55;99065.94;6298176;28;19924;-68
2023/01/13 05:54:15;;;;;;;;;;;;;;;-8.01;28.57;99063.22;6298645;28;19924;-69
2023/01/13 05:57:19;;;;;;;;;;;;;;;-7.87;29.03;99066.38;6298825;28;19924;-68
2023/01/13 06:00:23;;;;;;;;;;;;;;;-7.90;28.90;99049.22;6298777;28;19924;-68
2023/01/13 06:03:26;;;;;;;;;;;;;;;-7.78;29.86;99047.22;6297999;28;19924;-68
2023/01/13 06:06:32;;;;;;;;;;;;;;;-7.82;29.87;99073.44;6298878;28;19925;-68
2023/01/13 06:09:38;;;;;;;;;;;;;;;-7.90;30.74;99072.22;6298737;28;19924;-68
2023/01/13 06:12:42;;;;;;;;;;;;;;;-7.88;30.86;99073.16;6298759;28;19924;-68
2023/01/13 06:15:43;;;;;;;;;;;;;;;-7.95;30.65;99069.50;6297363;28;19932;-68
2023/01/13 06:18:48;;;;;;;;;;;;;;;-7.97;30.87;99030.22;6298808;28;19924;-68
2023/01/13 06:21:55;;;;;;;;;;;;;;;-8.03;30.63;99018.88;6298636;28;19925;-69
2023/01/13 06:24:57;;;;;;;;;;;;;;;-7.96;30.82;99031.94;6298046;28;19925;-68
2023/01/13 06:27:59;;;;;;;;;;;;;;;-7.98;30.47;99035.25;6298317;28;19928;-68
2023/01/13 06:31:04;;;;;;;;;;;;;;;-7.71;29.90;99044.09;6296594;28;19931;-68
2023/01/13 06:34:13;;;;;;;;;;;;;;;-7.53;28.88;99032.88;6298140;28;20306;-68
2023/01/13 06:37:16;;;;;;;;;;;;;;;-7.64;29.64;99049.44;6297501;28;19931;-68
2023/01/13 06:40:19;;;;;;;;;;;;;;;-7.44;28.10;99040.94;6297305;28;19925;-68
2023/01/13 06:43:20;;;;;;;;;;;;;;;-7.48;28.75;99036.50;6297327;28;19931;-68
2023/01/13 06:46:26;;;;;;;;;;;;;;;-7.56;29.44;99037.88;6297966;28;19924;-67
2023/01/13 06:49:31;;;;;;;;;;;;;;;-7.38;29.07;99038.63;6297294;28;19925;-68
2023/01/13 06:52:37;;;;;;;;;;;;;;;-7.28;29.26;99027.94;6297750;28;19924;-68
2023/01/13 06:55:40;;;;;;;;;;;;;;;-7.22;28.87;99055.44;6297323;28;19931;-68
2023/01/13 06:58:44;;;;;;;;;;;;;;;-7.27;28.74;99057.84;6297707;28;19931;-67
2023/01/13 07:01:47;;;;;;;;;;;;;;;-7.31;28.50;99049.97;6297737;28;20386;-68
2023/01/13 07:04:53;;;;;;;;;;;;;;;-7.16;28.40;99057.38;6296459;28;19925;-67
2023/01/13 07:08:01;;;;;;;;;;;;;;;-7.24;28.59;99068.19;6296461;28;20243;-67
2023/01/13 07:11:04;;;;;;;;;;;;;;;-7.09;28.43;99067.94;6297668;28;19924;-67
2023/01/13 07:17:29;;;;;;;;;;;;;;;-6.87;28.20;99046.63;6296982;28;19925;-68
2023/01/13 07:20:33;;;;;;;;;;;;;;;-6.96;27.97;99042.81;6296915;28;19932;-68
2023/01/13 07:23:38;;;;;;;;;;;;;;;-6.78;27.80;99059.75;6296178;28;19928;-67
2023/01/13 07:26:39;;;;;;;;;;;;;;;-6.84;28.78;99045.88;6295963;28;20314;-70
2023/01/13 07:29:45;;;;;;;;;;;;;;;-6.95;29.53;99060.81;6296570;28;19924;-68
2023/01/13 07:32:48;;;;;;;;;;;;;;;-6.72;28.78;99073.63;6296649;28;19928;-68
2023/01/13 07:35:56;;;;;;;;;;;;;;;-6.87;28.97;99049.19;6296322;28;20279;-67
2023/01/13 07:38:57;;;;;;;;;;;;;;;-6.85;29.14;99056.91;6296166;28;19924;-69
2023/01/13 07:45:20;;;;;;;;;;;;;;;-6.88;28.97;99044.88;6296623;28;19928;-68
2023/01/13 07:48:26;;;;;;;;;;;;;;;-6.72;28.22;99048.88;6296327;28;20348;-68
2023/01/13 07:51:27;;;;;;;;;;;;;;;-6.49;28.43;99049.75;6296193;28;19924;-68
2023/01/13 07:54:31;;;;;;;;;;;;;;;-6.46;29.04;99056.69;6296172;28;19982;-68
2023/01/13 07:57:32;;;;;;;;;;;;;;;-6.48;29.30;99068.53;6295074;28;19924;-68
2023/01/13 08:00:37;;;;;;;;;;;;;;;-6.35;29.67;99070.75;6295474;28;19928;-67
2023/01/13 08:03:46;;;;;;;;;;;;;;;-6.58;29.69;99067.34;6296672;28;20018;-68
2023/01/13 08:06:49;;;;;;;;;;;;;;;-6.52;29.09;99077.81;6296161;28;19925;-69
2023/01/13 08:09:52;;;;;;;;;;;;;;;-6.28;27.17;99066.72;6296200;28;20307;-68
2023/01/13 08:16:15;;;;;;;;;;;;;;;-6.34;27.42;99065.72;6295876;28;20441;-68
2023/01/13 08:19:21;;;;;;;;;;;;;;;-6.31;28.52;99064.94;6296200;28;19928;-67
2023/01/13 08:22:22;;;;;;;;;;;;;;;-6.54;29.82;99074.31;6295864;28;19924;-68
2023/01/13 08:25:28;;;;;;;;;;;;;;;-6.62;30.13;99097.09;6295654;28;20389;-68
2023/01/13 08:28:34;;;;;;;;;;;;;;;-6.60;30.76;99066.41;6295610;28;20347;-68
2023/01/13 08:31:38;;;;;;;;;;;;;;;-6.42;30.80;99079.91;6296111;28;20313;-68
2023/01/13 08:34:41;;;;;;;;;;;;;;;-6.52;30.90;99066.69;6295897;28;19932;-67
2023/01/13 08:37:45;;;;;;;;;;;;;;;-6.64;30.24;99074.78;6295740;28;20020;-67
2023/01/13 08:40:46;;;;;;;;;;;;;;;-6.51;29.71;99081.25;6294926;28;19925;-69
2023/01/13 08:43:46;;;;;;;;;;;;;;;-6.36;29.61;99039.16;6294705;28;20323;-68
2023/01/13 08:46:52;;;;;;;;;;;;;;;-6.30;29.97;99043.63;6295694;28;19932;-68
2023/01/13 08:49:55;;;;;;;;;;;;;;;-6.21;29.12;99030.28;6294783;28;20382;-69
2023/01/13 08:52:57;;;;;;;;;;;;;;;-6.33;29.49;99044.38;6294669;28;19924;-67
2023/01/13 08:55:58;;;;;;;;;;;;;;;-6.22;28.97;99010.59;6294649;28;19953;-70
2023/01/13 08:59:02;;;;;;;;;;;;;;;-6.28;28.97;99041.09;6295527;28;19924;-69
2023/01/13 09:02:11;;;;;;;;;;;;;;;-6.33;29.61;99048.63;6277107;28;19924;-69
2023/01/13 09:05:15;;;;;;;;;;;;;;;-6.32;30.82;99041.00;6295393;28;19924;-68
2023/01/13 09:08:16;;;;;;;;;;;;;;;-6.30;29.73;99053.00;6295457;28;19962;-68
2023/01/13 09:14:39;;;;;;;;;;;;;;;-6.16;29.56;99051.81;6300265;28;20379;-68
2023/01/13 09:17:43;;;;;;;;;;;;;;;-6.14;30.20;99060.44;6282544;28;19928;-70
2023/01/13 09:20:46;;;;;;;;;;;;;;;-6.11;30.25;99050.31;6299040;28;19924;-68
2023/01/13 09:23:49;;;;;;;;;;;;;;;-6.00;29.58;99032.72;6299830;28;19932;-69
2023/01/13 09:26:51;;;;;;;;;;;;;;;-5.85;29.98;99058.00;6298946;28;20015;-68
2023/01/13 09:29:54;;;;;;;;;;;;;;;-5.84;30.18;99070.84;6299839;28;19924;-69
2023/01/13 09:36:20;;;;;;;;;;;;;;;-5.72;28.46;99079.00;6298398;28;19931;-68
2023/01/13 09:39:21;;;;;;;;;;;;;;;-5.47;27.98;99061.88;6298316;28;20417;-69
2023/01/13 09:45:54;;;;;;;;;;;;;;;-5.25;28.89;99064.31;6298843;28;19931;-68
2023/01/13 09:48:56;;;;;;;;;;;;;;;-5.25;29.76;99064.31;6297420;28;19951;-69
2023/01/13 09:52:08;;;;;;;;;;;;;;;-5.32;29.98;99076.88;6299051;28;19928;-68
2023/01/13 09:55:16;;;;;;;;;;;;;;;-5.21;30.78;99071.31;6298777;28;19924;-68
2023/01/13 09:58:19;;;;;;;;;;;;;;;-5.16;30.34;99074.00;6298881;28;20021;-68
2023/01/13 10:01:33;;;;;;;;;;;;;;;-5.05;29.84;99071.81;6298798;28;19924;-68
2023/01/13 10:04:36;;;;;;;;;;;;;;;-4.88;29.47;99055.22;6298123;28;20344;-68
2023/01/13 10:07:51;;;;;;;;;;;;;;;-4.77;29.60;99053.88;6299013;28;19925;-69
2023/01/13 10:10:57;;;;;;;;;;;;;;;-4.58;29.44;99045.03;6298060;28;19946;-67
2023/01/13 10:14:05;;;;;;;;;;;;;;;-4.24;28.95;99055.44;6298579;28;19960;-67
2023/01/13 10:17:18;;;;;;;;;;;;;;;-4.03;28.74;99047.44;6297932;28;19924;-68
2023/01/13 10:20:23;;;;;;;;;;;;;;;-4.20;28.06;99052.97;6297600;28;20294;-69
2023/01/13 10:23:45;;;;;;;;;;;;;;;-4.29;27.79;99057.84;6297596;28;19936;-68
2023/01/13 10:26:51;;;;;;;;;;;;;;;-4.64;28.99;99057.69;6297720;28;19920;-68
2023/01/13 10:29:57;;;;;;;;;;;;;;;-4.73;29.14;99054.81;6298047;28;20464;-68
2023/01/13 10:33:13;;;;;;;;;;;;;;;-4.87;29.18;99056.09;6298200;28;19920;-69
2023/01/13 10:36:15;;;;;;;;;;;;;;;-4.91;29.62;99061.97;6297134;28;19968;-68
2023/01/13 10:39:20;;;;;;;;;;;;;;;-4.83;29.41;99057.94;6296751;28;20311;-69
2023/01/13 10:42:22;;;;;;;;;;;;;;;-4.98;29.40;99059.22;6297031;28;19947;-69
2023/01/13 10:45:24;;;;;;;;;;;;;;;-4.94;29.02;99049.03;6279447;28;20310;-69
2023/01/13 10:48:37;;;;;;;;;;;;;;;-5.18;29.64;99047.41;6296673;28;20309;-68
2023/01/13 10:51:48;;;;;;;;;;;;;;;-4.94;28.56;99055.03;6297819;28;19931;-68
2023/01/13 10:54:53;;;;;;;;;;;;;;;-4.94;29.00;99049.03;6279492;28;20282;-69
2023/01/13 10:57:55;;;;;;;;;;;;;;;-5.06;29.69;99065.81;6296259;28;20325;-67
2023/01/13 11:01:04;;;;;;;;;;;;;;;-5.13;29.89;99061.28;6297234;28;19924;-69
2023/01/13 11:04:36;;;;;;;;;;;;;;;-5.14;30.08;99067.25;6296985;28;20014;-68
2023/01/13 11:07:44;;;;;;;;;;;;;;;-5.15;29.89;99055.25;6277388;28;19928;-69
2023/01/13 11:10:49;;;;;;;;;;;;;;;-5.34;30.84;99058.91;6296245;28;19935;-68
2023/01/13 11:17:16;;;;;;;;;;;;;;;-5.07;29.80;99064.03;6296541;28;19924;-69
2023/01/13 11:20:19;;;;;;;;;;;;;;;-5.08;30.01;99067.44;6296313;28;19931;-68
2023/01/13 11:23:30;;;;;;;;;;;;;;;-5.16;29.95;99071.44;6296679;28;19928;-68
2023/01/13 11:26:42;;;;;;;;;;;;;;;-5.29;29.86;99069.31;6296151;28;19929;-68
2023/01/13 11:30:08;;;;;;;;;;;;;;;-5.09;29.83;99068.28;6295986;28;19982;-69
2023/01/13 11:33:12;;;;;;;;;;;;;;;-5.25;31.06;99077.16;6296094;28;19931;-68
2023/01/13 11:36:18;;;;;;;;;;;;;;;-5.46;30.75;99069.63;6295471;28;19928;-68
2023/01/13 11:39:37;;;;;;;;;;;;;;;-5.73;31.70;99082.38;6296608;28;19932;-68
2023/01/13 11:42:58;;;;;;;;;;;;;;;-5.91;32.26;99085.16;6296579;28;19924;-69
2023/01/13 11:46:01;;;;;;;;;;;;;;;-6.15;31.75;99090.28;6296428;28;19924;-69
2023/01/13 11:49:03;;;;;;;;;;;;;;;-6.46;32.84;99093.41;6295292;28;19924;-69
2023/01/13 11:52:27;;;;;;;;;;;;;;;-6.12;32.08;99100.66;6295599;28;19925;-69
2023/01/13 11:55:33;;;;;;;;;;;;;;;-6.36;32.60;99113.44;6294663;28;20512;-68
2023/01/13 11:58:37;;;;;;;;;;;;;;;-6.46;32.35;99083.16;6295307;28;19925;-70
2023/01/13 12:01:47;;;;;;;;;;;;;;;-6.78;33.11;99077.69;6295381;28;19924;-68
2023/01/13 12:04:50;;;;;;;;;;;;;;;-6.74;33.77;99094.03;6295158;28;19928;-68
2023/01/13 12:08:00;;;;;;;;;;;;;;;-7.09;34.05;99097.75;6294805;28;19924;-68
2023/01/13 12:11:21;;;;;;;;;;;;;;;-7.26;34.16;99094.50;6296082;28;19924;-68
2023/01/13 12:14:37;;;;;;;;;;;;;;;-7.25;34.83;99092.00;6295778;28;19928;-68
2023/01/13 12:17:50;;;;;;;;;;;;;;;-7.38;34.64;99094.88;6295281;28;19932;-67
2023/01/13 12:21:06;;;;;;;;;;;;;;;-7.35;35.04;99092.47;6295820;28;20306;-69
2023/01/13 12:24:11;;;;;;;;;;;;;;;-7.36;34.68;99098.41;6278316;28;19925;-68
2023/01/13 12:27:23;;;;;;;;;;;;;;;-7.24;35.00;99098.88;6295761;28;19924;-68
2023/01/13 12:30:47;;;;;;;;;;;;;;;-7.32;35.56;99110.50;6277818;28;19943;-69
2023/01/13 12:34:03;;;;;;;;;;;;;;;-7.41;34.89;99109.25;6294232;28;20313;-68
2023/01/13 12:37:12;;;;;;;;;;;;;;;-7.44;35.67;99104.88;6294241;28;19931;-69
2023/01/13 12:40:22;;;;;;;;;;;;;;;-7.38;34.79;99105.13;6295470;28;19929;-68
2023/01/13 12:46:51;;;;;;;;;;;;;;;-7.20;34.96;99094.75;6296185;28;20310;-68
2023/01/13 12:50:12;;;;;;;;;;;;;;;-7.25;34.68;99114.16;6299821;28;20298;-68
2023/01/13 12:53:28;;;;;;;;;;;;;;;-7.19;35.48;99103.31;6299118;28;19928;-68
2023/01/13 12:56:39;;;;;;;;;;;;;;;-7.58;36.22;99078.72;6298943;28;19936;-69
2023/01/13 12:59:40;;;;;;;;;;;;;;;-7.54;35.91;99087.38;6299311;28;19931;-68
2023/01/13 13:03:02;;;;;;;;;;;;;;;-7.31;35.35;99094.31;6299375;28;19931;-68
2023/01/13 13:06:17;;;;;;;;;;;;;;;-7.33;35.27;99103.63;6299614;28;20394;-68
2023/01/13 13:09:23;;;;;;;;;;;;;;;-7.46;35.74;99121.81;6300152;28;19924;-69
2023/01/13 13:15:50;;;;;;;;;;;;;;;-7.44;36.40;99127.88;6299344;28;20023;-68
2023/01/13 13:19:20;;;;;;;;;;;;;;;-7.47;36.22;99126.06;6299339;28;19931;-69
2023/01/13 13:22:43;;;;;;;;;;;;;;;-7.39;35.92;99134.03;6299374;28;19920;-68
2023/01/13 13:26:06;;;;;;;;;;;;;;;-7.34;35.72;99119.78;6299793;28;19924;-69
2023/01/13 13:29:21;;;;;;;;;;;;;;;-7.31;35.58;99122.44;6299932;28;19920;-69
2023/01/13 13:32:48;;;;;;;;;;;;;;;-7.47;36.15;99114.97;6299176;28;19932;-68
2023/01/13 13:36:08;;;;;;;;;;;;;;;-7.60;36.83;99117.81;6294660;28;19924;-69
2023/01/13 13:49:45;;;;;;;;;;;;;;;-7.68;36.69;99131.13;6299396;28;19928;-69
2023/01/13 13:52:54;;;;;;;;;;;;;;;-7.51;36.45;99138.66;6280691;28;19932;-68
2023/01/13 13:55:59;;;;;;;;;;;;;;;-7.49;35.91;99147.25;6298801;28;19924;-67
2023/01/13 13:59:02;;;;;;;;;;;;;;;-7.25;33.84;99150.84;6297836;28;19924;-68
2023/01/13 14:02:14;;;;;;;;;;;;;;;-7.31;34.10;99163.38;6298119;28;20325;-69
2023/01/13 14:05:19;;;;;;;;;;;;;;;-7.22;32.89;99173.13;6298909;28;19924;-68
2023/01/13 14:08:21;;;;;;;;;;;;;;;-7.23;33.02;99169.69;6297849;28;20015;-68
2023/01/13 14:11:26;;;;;;;;;;;;;;;-7.05;32.27;99171.25;6298122;28;20011;-68
2023/01/13 14:14:41;;;;;;;;;;;;;;;-7.23;32.29;99162.03;6298707;28;20313;-69
2023/01/13 14:17:49;;;;;;;;;;;;;;;-7.18;32.06;99169.03;6298995;28;20035;-69
2023/01/13 14:20:58;;;;;;;;;;;;;;;-7.06;32.05;99172.09;6297833;28;19925;-68
2023/01/13 14:24:11;;;;;;;;;;;;;;;-7.01;31.84;99168.03;6297644;28;19932;-69
2023/01/13 14:27:18;;;;;;;;;;;;;;;-7.07;31.88;99157.56;6298304;28;19928;-68
2023/01/13 14:30:20;;;;;;;;;;;;;;;-7.06;32.09;99169.53;6297401;28;20306;-68
2023/01/13 14:33:37;;;;;;;;;;;;;;;-7.28;32.84;99177.97;6295806;28;19931;-68
2023/01/13 14:36:42;;;;;;;;;;;;;;;-6.96;31.99;99174.22;6280572;28;19924;-68
2023/01/13 14:39:43;;;;;;;;;;;;;;;-7.17;32.48;99156.28;6297729;28;19931;-68
2023/01/13 14:42:45;;;;;;;;;;;;;;;-7.18;33.01;99148.56;6297305;28;20007;-70
2023/01/13 14:45:56;;;;;;;;;;;;;;;-7.34;33.76;99153.03;6296419;28;19925;-68
2023/01/13 14:49:00;;;;;;;;;;;;;;;-7.59;34.50;99160.44;6297865;28;19924;-69
2023/01/13 14:52:22;;;;;;;;;;;;;;;-7.61;34.80;99157.84;6296676;28;20519;-68
2023/01/13 14:55:27;;;;;;;;;;;;;;;-7.63;34.53;99168.81;6297317;28;19935;-68
2023/01/13 14:58:28;;;;;;;;;;;;;;;-7.79;34.58;99157.91;6297079;28;19924;-69
2023/01/13 15:01:38;;;;;;;;;;;;;;;-7.99;34.48;99153.59;6279212;28;19970;-68
2023/01/13 15:04:41;;;;;;;;;;;;;;;-7.94;34.13;99152.13;6296723;28;19928;-69
2023/01/13 15:07:50;;;;;;;;;;;;;;;-8.14;34.47;99149.53;6297521;28;19925;-68
2023/01/13 15:11:02;;;;;;;;;;;;;;;-8.21;34.35;99157.75;6295798;28;19924;-69
2023/01/13 15:14:09;;;;;;;;;;;;;;;-8.25;34.08;99153.28;6297082;28;19932;-68
2023/01/13 15:17:15;;;;;;;;;;;;;;;-8.31;34.15;99150.47;6296885;28;20394;-69
2023/01/13 15:20:21;;;;;;;;;;;;;;;-8.31;33.88;99150.47;6296981;28;19928;-68
2023/01/13 15:23:22;;;;;;;;;;;;;;;-8.36;34.17;99159.56;6295872;28;19959;-68
2023/01/13 15:26:28;;;;;;;;;;;;;;;-8.57;34.38;99156.06;6295834;28;20394;-68
2023/01/13 15:29:29;;;;;;;;;;;;;;;-8.65;34.74;99143.81;6296759;28;19959;-68
2023/01/13 15:32:35;;;;;;;;;;;;;;;-8.85;35.24;99144.56;6296829;28;20402;-69
2023/01/13 15:35:40;;;;;;;;;;;;;;;-8.94;36.41;99154.31;6295688;28;19924;-70
2023/01/13 15:38:43;;;;;;;;;;;;;;;-9.14;36.41;99146.56;6296693;28;20337;-68
2023/01/13 15:48:30;;;;;;;;;;;;;;;-9.39;36.03;99118.13;6296522;28;19920;-68
2023/01/13 15:51:31;;;;;;;;;;;;;;;-9.42;35.48;99117.97;6295450;28;20297;-68
2023/01/13 15:54:33;;;;;;;;;;;;;;;-9.53;35.81;99118.31;6295334;28;19920;-69
2023/01/13 15:57:34;;;;;;;;;;;;;;;-9.64;36.24;99121.97;6294883;28;20063;-68
2023/01/13 16:00:42;;;;;;;;;;;;;;;-9.76;36.70;99119.69;6296328;28;19924;-68
2023/01/13 16:03:45;;;;;;;;;;;;;;;-9.77;37.55;99109.41;6295693;28;19927;-68
2023/01/13 16:06:48;;;;;;;;;;;;;;;-9.84;37.56;99105.69;6295481;28;20007;-68
2023/01/13 16:09:53;;;;;;;;;;;;;;;-9.81;37.48;99108.38;6277306;28;19927;-70
2023/01/13 16:12:57;;;;;;;;;;;;;;;-10.03;37.34;99126.78;6295105;28;19925;-69
2023/01/13 16:16:03;;;;;;;;;;;;;;;-10.14;37.61;99125.34;6295985;28;20024;-68
2023/01/13 16:19:09;;;;;;;;;;;;;;;-10.33;38.04;99127.72;6277595;28;19924;-68
2023/01/13 16:22:11;;;;;;;;;;;;;;;-10.32;38.06;99126.97;6294067;28;20078;-68
2023/01/13 16:25:16;;;;;;;;;;;;;;;-10.25;37.25;99118.81;6295214;28;19928;-69
2023/01/13 16:28:21;;;;;;;;;;;;;;;-10.19;36.16;99149.66;6294779;28;19924;-69
2023/01/13 16:31:33;;;;;;;;;;;;;;;-10.08;36.07;99128.19;6295392;28;19924;-68
2023/01/13 16:34:49;;;;;;;;;;;;;;;-10.04;35.88;99114.84;6295575;28;20299;-67
2023/01/13 16:37:57;;;;;;;;;;;;;;;-10.05;35.99;99105.44;6292680;28;19924;-69
2023/01/13 16:41:03;;;;;;;;;;;;;;;-10.08;36.39;99079.81;6295816;28;20022;-68
2023/01/13 16:44:06;;;;;;;;;;;;;;;-10.06;36.70;99083.31;6295081;28;20025;-68
2023/01/13 16:47:22;;;;;;;;;;;;;;;-10.16;37.39;99091.31;6294628;28;20324;-69
2023/01/13 16:50:26;;;;;;;;;;;;;;;-10.31;37.79;99091.38;6294493;28;19924;-70
2023/01/13 16:53:27;;;;;;;;;;;;;;;-10.36;38.19;99086.84;6295036;28;19924;-68
2023/01/13 16:56:30;;;;;;;;;;;;;;;-10.45;38.45;99100.84;6296212;28;19928;-69
2023/01/13 16:59:31;;;;;;;;;;;;;;;-10.59;38.49;99106.84;6294636;28;20023;-68
2023/01/13 17:02:35;;;;;;;;;;;;;;;-10.68;38.92;99101.28;6295190;28;19931;-68
2023/01/13 17:05:38;;;;;;;;;;;;;;;-10.72;39.19;99086.66;6295993;28;19924;-69
2023/01/13 17:08:42;;;;;;;;;;;;;;;-10.71;38.42;99098.56;6295243;28;19925;-68
2023/01/13 17:11:43;;;;;;;;;;;;;;;-10.76;38.36;99098.31;6293487;28;20425;-68
2023/01/13 17:14:44;;;;;;;;;;;;;;;-10.62;38.17;99101.59;6294283;28;19931;-71
2023/01/13 17:17:46;;;;;;;;;;;;;;;-10.49;37.53;99098.94;6293586;28;19925;-69
2023/01/13 17:20:47;;;;;;;;;;;;;;;-10.54;37.78;99080.00;6294181;28;19924;-70
2023/01/13 17:23:48;;;;;;;;;;;;;;;-10.54;37.93;99095.25;6294775;28;19924;-69
2023/01/13 17:26:50;;;;;;;;;;;;;;;-10.65;38.35;99096.34;6294458;28;19928;-69